createdAt,value
2022-08-21T00:01:48.623Z,20.38
2022-08-21T00:04:22.390Z,19.00
2022-08-21T00:06:51.232Z,19.42
2022-08-21T00:09:20.129Z,19.10
2022-08-21T00:11:49.381Z,20.48
2022-08-21T00:14:17.722Z,20.23
2022-08-21T00:16:47.400Z,19.33
2022-08-21T00:19:15.467Z,19.20
2022-08-21T00:21:44.277Z,18.83
2022-08-21T00:24:13.275Z,18.88
2022-08-21T00:26:45.234Z,19.75
2022-08-21T00:29:13.702Z,19.70
2022-08-21T00:31:41.910Z,19.15
2022-08-21T00:34:14.122Z,19.00
2022-08-21T00:36:42.713Z,19.45
2022-08-21T00:39:11.658Z,18.65
2022-08-21T00:41:40.833Z,17.17
2022-08-21T00:44:11.122Z,17.30
2022-08-21T00:46:40.240Z,16.15
2022-08-21T00:49:09.496Z,16.02
2022-08-21T00:51:42.121Z,15.98
2022-08-21T00:54:19.048Z,15.35
2022-08-21T00:56:52.829Z,14.55
2022-08-21T00:59:25.640Z,15.25
2022-08-21T01:01:54.049Z,14.88
2022-08-21T01:04:22.241Z,16.63
2022-08-21T01:06:52.602Z,16.73
2022-08-21T01:09:21.015Z,16.48
2022-08-21T01:11:49.926Z,17.77
2022-08-21T01:14:21.448Z,16.73
2022-08-21T01:16:54.151Z,16.95
2022-08-21T01:19:24.064Z,15.90
2022-08-21T01:21:54.721Z,16.60
2022-08-21T01:24:22.821Z,17.63
2022-08-21T01:26:51.861Z,18.02
2022-08-21T01:29:30.999Z,17.88
2022-08-21T01:31:59.350Z,16.13
2022-08-21T01:34:27.500Z,15.65
2022-08-21T01:36:57.210Z,16.70
2022-08-21T01:39:25.622Z,15.85
2022-08-21T01:41:53.735Z,16.85
2022-08-21T01:44:23.437Z,16.90
2022-08-21T01:46:52.726Z,17.38
2022-08-21T01:49:21.286Z,16.27
2022-08-21T01:51:49.704Z,17.88
2022-08-21T01:54:19.181Z,16.40
2022-08-21T01:56:49.505Z,17.08
2022-08-21T01:59:17.519Z,17.38
2022-08-21T02:01:45.689Z,19.05
2022-08-21T02:04:13.809Z,16.58
2022-08-21T02:06:41.954Z,18.23
2022-08-21T02:09:11.836Z,17.65
2022-08-21T02:11:42.346Z,18.70
2022-08-21T02:14:12.607Z,18.33
2022-08-21T02:16:41.220Z,20.92
2022-08-21T02:19:09.565Z,21.80
2022-08-21T02:21:39.528Z,20.42
2022-08-21T02:24:08.438Z,21.30
2022-08-21T02:26:36.536Z,22.02
2022-08-21T02:29:08.277Z,23.20
2022-08-21T02:31:36.496Z,21.73
2022-08-21T02:34:04.559Z,22.17
2022-08-21T02:36:32.822Z,21.52
2022-08-21T02:39:02.179Z,21.00
2022-08-21T02:41:30.213Z,20.85
2022-08-21T02:43:58.172Z,18.83
2022-08-21T02:46:27.885Z,18.90
2022-08-21T02:48:56.014Z,20.13
2022-08-21T02:51:24.776Z,20.02
2022-08-21T02:53:55.354Z,19.88
2022-08-21T02:56:26.529Z,19.92
2022-08-21T02:58:59.739Z,20.23
2022-08-21T03:01:31.180Z,19.27
2022-08-21T03:04:00.593Z,19.92
2022-08-21T03:06:30.378Z,19.05
2022-08-21T03:08:58.581Z,19.40
2022-08-21T03:11:27.488Z,20.48
2022-08-21T03:13:58.525Z,19.50
2022-08-21T03:16:30.908Z,21.38
2022-08-21T03:19:03.600Z,19.80
2022-08-21T03:21:31.589Z,19.33
2022-08-21T03:23:59.668Z,18.15
2022-08-21T03:26:38.092Z,19.20
2022-08-21T03:29:08.627Z,18.90
2022-08-21T03:31:37.929Z,20.08
2022-08-21T03:34:05.995Z,19.58
2022-08-21T03:36:34.135Z,19.55
2022-08-21T03:39:02.307Z,20.52
2022-08-21T03:41:30.391Z,20.95
2022-08-21T03:43:58.431Z,20.50
2022-08-21T03:46:26.664Z,20.35
2022-08-21T03:48:56.601Z,22.05
2022-08-21T03:51:24.557Z,20.52
2022-08-21T03:53:55.036Z,21.70
2022-08-21T03:56:23.105Z,21.02
2022-08-21T03:58:51.306Z,21.67
2022-08-21T04:01:19.466Z,22.85
2022-08-21T04:03:47.441Z,20.42
2022-08-21T04:06:18.984Z,21.63
2022-08-21T04:08:46.913Z,20.95
2022-08-21T04:11:15.717Z,21.23
2022-08-21T04:13:44.710Z,20.73
2022-08-21T04:16:13.263Z,21.25
2022-08-21T04:18:41.501Z,20.92
2022-08-21T04:21:12.146Z,20.73
2022-08-21T04:23:43.011Z,21.48
2022-08-21T04:26:11.350Z,20.75
2022-08-21T04:28:39.449Z,21.63
2022-08-21T04:31:10.773Z,21.77
2022-08-21T04:33:38.996Z,22.55
2022-08-21T04:36:08.986Z,22.30
2022-08-21T04:38:37.673Z,21.15
2022-08-21T04:41:07.519Z,21.92
2022-08-21T04:43:35.846Z,21.48
2022-08-21T04:46:06.565Z,22.42
2022-08-21T04:48:35.013Z,20.85
2022-08-21T04:51:07.829Z,20.73
2022-08-21T04:53:42.122Z,20.52
2022-08-21T04:56:18.745Z,20.75
2022-08-21T04:58:47.014Z,20.83
2022-08-21T05:01:18.171Z,20.77
2022-08-21T05:03:47.063Z,21.55
2022-08-21T05:06:17.881Z,22.23
2022-08-21T05:08:48.766Z,22.20
2022-08-21T05:11:18.299Z,21.50
2022-08-21T05:13:46.500Z,21.40
2022-08-21T05:16:14.770Z,21.05
2022-08-21T05:19:02.993Z,22.02
2022-08-21T05:21:36.620Z,22.52
2022-08-21T05:24:05.162Z,23.50
2022-08-21T05:26:38.281Z,22.23
2022-08-21T05:29:15.245Z,23.05
2022-08-21T05:31:45.072Z,22.42
2022-08-21T05:34:16.115Z,22.02
2022-08-21T05:36:44.529Z,21.90
2022-08-21T05:39:13.167Z,21.48
2022-08-21T05:41:42.859Z,22.20
2022-08-21T05:44:11.318Z,21.52
2022-08-21T05:46:40.051Z,19.55
2022-08-21T05:49:10.467Z,20.48
2022-08-21T05:51:38.734Z,19.63
2022-08-21T05:54:07.110Z,18.67
2022-08-21T05:56:35.404Z,18.13
2022-08-21T05:59:08.754Z,19.00
2022-08-21T06:01:37.511Z,18.90
2022-08-21T06:04:07.896Z,18.50
2022-08-21T06:06:36.472Z,18.60
2022-08-21T06:09:05.174Z,19.63
2022-08-21T06:11:38.340Z,19.35
2022-08-21T06:14:08.768Z,19.08
2022-08-21T06:16:36.952Z,19.60
2022-08-21T06:19:05.091Z,18.77
2022-08-21T06:21:33.374Z,19.85
2022-08-21T06:24:03.220Z,19.83
2022-08-21T06:26:33.059Z,18.88
2022-08-21T06:29:01.626Z,18.65
2022-08-21T06:31:33.724Z,19.20
2022-08-21T06:34:04.362Z,18.20
2022-08-21T06:36:34.865Z,17.85
2022-08-21T06:39:03.449Z,18.17
2022-08-21T06:41:44.975Z,18.92
2022-08-21T06:44:13.628Z,18.95
2022-08-21T06:46:47.648Z,17.80
2022-08-21T06:49:21.624Z,18.95
2022-08-21T06:51:50.080Z,18.48
2022-08-21T06:54:20.777Z,17.48
2022-08-21T06:56:48.733Z,17.98
2022-08-21T06:59:16.804Z,17.73
2022-08-21T07:01:47.466Z,16.92
2022-08-21T07:04:15.616Z,17.00
2022-08-21T07:06:43.705Z,17.63
2022-08-21T07:09:14.126Z,17.48
2022-08-21T07:11:47.579Z,17.52
2022-08-21T07:14:20.282Z,16.63
2022-08-21T07:16:51.779Z,17.90
2022-08-21T07:19:21.554Z,16.45
2022-08-21T07:21:49.925Z,16.05
2022-08-21T07:24:18.015Z,16.95
2022-08-21T07:26:49.039Z,17.00
2022-08-21T07:29:20.090Z,16.80
2022-08-21T07:31:52.185Z,15.50
2022-08-21T07:34:20.383Z,15.52
2022-08-21T07:36:48.654Z,16.05
2022-08-21T07:39:24.516Z,16.10
2022-08-21T07:41:57.555Z,14.75
2022-08-21T07:44:25.755Z,14.63
2022-08-21T07:46:57.654Z,15.68
2022-08-21T07:49:25.880Z,15.50
2022-08-21T07:51:53.936Z,14.18
2022-08-21T07:54:33.437Z,14.23
2022-08-21T07:57:02.410Z,13.48
2022-08-21T07:59:50.358Z,12.57
2022-08-21T08:02:26.714Z,11.70
2022-08-21T08:04:55.070Z,11.68
2022-08-21T08:07:27.358Z,11.48
2022-08-21T08:09:57.328Z,13.20
2022-08-21T08:12:30.587Z,13.20
2022-08-21T08:15:02.076Z,13.35
2022-08-21T08:17:34.357Z,12.52
2022-08-21T08:20:03.574Z,13.50
2022-08-21T08:22:36.492Z,12.63
2022-08-21T08:25:10.657Z,13.18
2022-08-21T08:27:39.324Z,13.20
2022-08-21T08:30:09.967Z,12.40
2022-08-21T08:32:39.892Z,13.30
2022-08-21T08:35:10.532Z,12.90
2022-08-21T08:37:41.363Z,12.43
2022-08-21T08:40:14.826Z,10.95
2022-08-21T08:42:43.812Z,11.00
2022-08-21T08:45:14.957Z,11.88
2022-08-21T08:47:47.664Z,10.80
2022-08-21T08:50:27.782Z,11.38
2022-08-21T08:53:05.790Z,10.13
2022-08-21T08:55:41.237Z,8.65
2022-08-21T08:58:13.934Z,9.95
2022-08-21T09:00:43.352Z,10.55
2022-08-21T09:03:13.389Z,11.10
2022-08-21T09:05:46.918Z,10.57
2022-08-21T09:08:42.735Z,9.88
2022-08-21T09:11:16.537Z,10.07
2022-08-21T09:14:00.707Z,8.70
2022-08-21T09:16:40.919Z,8.85
2022-08-21T09:19:34.004Z,8.82
2022-08-21T09:22:11.348Z,10.85
2022-08-21T09:24:52.017Z,11.85
2022-08-21T09:27:23.935Z,8.73
2022-08-21T09:30:01.791Z,8.88
2022-08-21T09:32:38.194Z,9.02
2022-08-21T09:35:13.265Z,8.07
2022-08-21T09:37:56.222Z,7.22
2022-08-21T09:40:42.602Z,7.57
2022-08-21T09:43:22.617Z,6.60
2022-08-21T09:46:18.075Z,7.55
2022-08-21T09:48:52.165Z,9.43
2022-08-21T09:51:23.632Z,10.73
2022-08-21T09:54:06.890Z,9.02
2022-08-21T09:56:56.588Z,10.90
2022-08-21T09:59:35.710Z,11.25
2022-08-21T10:02:29.580Z,9.40
2022-08-21T10:05:00.726Z,9.30
2022-08-21T10:07:34.277Z,8.02
2022-08-21T10:10:09.495Z,6.30
2022-08-21T10:12:48.389Z,7.32
2022-08-21T10:15:28.761Z,8.27
2022-08-21T10:18:10.810Z,6.72
2022-08-21T10:20:45.881Z,6.45
2022-08-21T10:23:32.455Z,6.25
2022-08-21T10:26:13.334Z,4.90
2022-08-21T10:28:48.150Z,4.35
2022-08-21T10:31:30.351Z,3.65
2022-08-21T10:34:15.853Z,3.20
2022-08-21T10:36:48.734Z,2.60
2022-08-21T10:39:35.047Z,2.35
2022-08-21T10:42:35.109Z,2.45
2022-08-21T10:45:14.360Z,2.42
2022-08-21T10:47:52.905Z,2.40
2022-08-21T10:50:35.334Z,2.60
2022-08-21T10:53:18.289Z,2.33
2022-08-21T10:55:55.605Z,2.65
2022-08-21T10:58:30.708Z,2.40
2022-08-21T11:01:06.125Z,2.53
2022-08-21T11:03:41.756Z,2.28
2022-08-21T11:06:16.662Z,2.28
2022-08-21T11:08:48.058Z,2.67
2022-08-21T11:11:24.980Z,2.17
2022-08-21T11:14:06.294Z,2.38
2022-08-21T11:16:45.151Z,2.10
2022-08-21T11:19:19.706Z,2.28
2022-08-21T11:21:53.546Z,2.28
2022-08-21T11:24:32.130Z,2.40
2022-08-21T11:27:16.192Z,2.00
2022-08-21T11:29:52.397Z,2.22
2022-08-21T11:32:54.888Z,2.15
2022-08-21T11:35:40.226Z,3.08
2022-08-21T11:38:46.074Z,2.58
2022-08-21T11:41:26.654Z,2.85
2022-08-21T11:44:09.081Z,2.22
2022-08-21T11:46:46.446Z,2.30
2022-08-21T11:49:40.798Z,2.38
2022-08-21T11:52:38.335Z,2.53
2022-08-21T11:55:12.761Z,2.17
2022-08-21T11:57:49.315Z,2.10
2022-08-21T12:00:27.163Z,1.83
2022-08-21T12:03:09.899Z,2.25
2022-08-21T12:06:02.982Z,1.95
2022-08-21T12:08:42.745Z,2.25
2022-08-21T12:11:32.002Z,1.80
2022-08-21T12:14:16.605Z,1.80
2022-08-21T12:16:54.916Z,2.10
2022-08-21T12:19:40.652Z,2.08
2022-08-21T12:22:19.212Z,1.80
2022-08-21T12:25:59.347Z,2.10
2022-08-21T12:28:31.885Z,1.92
2022-08-21T12:31:05.292Z,1.98
2022-08-21T12:33:44.044Z,2.00
2022-08-21T12:36:22.218Z,2.20
2022-08-21T12:39:12.469Z,2.38
2022-08-21T12:44:40.408Z,2.30
2022-08-21T12:47:20.455Z,2.38
2022-08-21T12:53:20.715Z,2.03
2022-08-21T12:56:21.503Z,2.10
2022-08-21T12:59:14.972Z,2.20
2022-08-21T13:02:05.307Z,2.10
2022-08-21T13:05:10.793Z,2.65
2022-08-21T13:07:49.251Z,2.03
2022-08-21T13:10:44.881Z,2.20
2022-08-21T13:13:28.182Z,2.10
2022-08-21T13:16:01.420Z,1.92
2022-08-21T13:18:46.728Z,2.70
2022-08-21T13:21:17.128Z,2.10
2022-08-21T13:23:54.749Z,1.95
2022-08-21T13:26:28.009Z,1.92
2022-08-21T13:29:13.445Z,1.80
2022-08-21T13:32:01.015Z,1.80
2022-08-21T13:34:34.097Z,1.83
2022-08-21T13:40:31.722Z,2.10
2022-08-21T13:43:28.150Z,1.85
2022-08-21T13:46:19.809Z,1.75
2022-08-21T13:49:22.749Z,1.67
2022-08-21T13:52:28.039Z,1.77
2022-08-21T13:55:01.155Z,1.83
2022-08-21T13:57:43.570Z,2.30
2022-08-21T14:00:29.816Z,2.20
2022-08-21T14:03:22.230Z,2.35
2022-08-21T14:06:11.891Z,2.33
2022-08-21T14:08:59.406Z,2.17
2022-08-21T14:11:37.680Z,2.33
2022-08-21T14:14:30.730Z,2.42
2022-08-21T14:17:25.312Z,2.50
2022-08-21T14:20:14.570Z,2.60
2022-08-21T14:22:53.293Z,3.67
2022-08-21T14:25:44.046Z,2.33
2022-08-21T14:28:32.030Z,2.40
2022-08-21T14:31:34.211Z,2.90
2022-08-21T14:34:05.930Z,2.92
2022-08-21T14:37:20.552Z,2.88
2022-08-21T14:39:57.045Z,2.90
2022-08-21T14:42:27.761Z,3.00
2022-08-21T14:45:02.890Z,2.92
2022-08-21T14:47:56.821Z,2.97
2022-08-21T14:50:28.151Z,2.78
2022-08-21T14:53:34.223Z,2.67
2022-08-21T14:56:22.675Z,2.88
2022-08-21T14:59:10.416Z,3.28
2022-08-21T15:01:46.801Z,3.20
2022-08-21T15:04:20.177Z,3.17
2022-08-21T15:07:21.751Z,2.65
2022-08-21T15:09:57.224Z,3.10
2022-08-21T15:12:31.653Z,2.80
2022-08-21T15:15:17.778Z,3.03
2022-08-21T15:20:47.980Z,2.80
2022-08-21T15:23:16.462Z,2.70
2022-08-21T15:25:51.212Z,3.10
2022-08-21T15:28:37.751Z,2.92
2022-08-21T15:31:08.020Z,2.90
2022-08-21T15:33:36.478Z,3.53
2022-08-21T15:36:08.069Z,2.90
2022-08-21T15:38:36.319Z,3.20
2022-08-21T15:41:07.981Z,3.10
2022-08-21T15:43:42.870Z,2.90
2022-08-21T15:46:14.791Z,2.70
2022-08-21T15:48:47.240Z,2.88
2022-08-21T15:54:05.389Z,2.88
2022-08-21T15:56:39.056Z,2.78
2022-08-21T15:59:11.098Z,3.30
2022-08-21T16:01:44.883Z,3.10
2022-08-21T16:04:17.621Z,2.60
2022-08-21T16:07:06.594Z,2.63
2022-08-21T16:09:41.849Z,3.00
2022-08-21T16:12:15.769Z,2.83
2022-08-21T16:14:43.860Z,2.75
2022-08-21T16:17:19.246Z,2.78
2022-08-21T16:19:47.643Z,2.47
2022-08-21T16:22:17.257Z,3.15
2022-08-21T16:24:50.151Z,3.03
2022-08-21T16:27:19.506Z,2.72
2022-08-21T16:29:50.995Z,2.85
2022-08-21T16:32:21.148Z,2.80
2022-08-21T16:34:51.321Z,3.88
2022-08-21T16:37:24.558Z,3.13
2022-08-21T16:39:53.448Z,2.83
2022-08-21T16:42:26.153Z,3.15
2022-08-21T16:44:56.452Z,2.53
2022-08-21T16:47:26.471Z,3.03
2022-08-21T16:49:58.490Z,3.17
2022-08-21T16:52:28.308Z,3.47
2022-08-21T16:54:56.393Z,2.80
2022-08-21T16:57:25.470Z,2.92
2022-08-21T16:59:53.893Z,6.60
2022-08-21T17:02:27.882Z,2.70
2022-08-21T17:04:57.636Z,3.00
2022-08-21T17:07:27.364Z,2.90
2022-08-21T17:09:55.377Z,2.83
2022-08-21T17:12:24.274Z,2.58
2022-08-21T17:14:52.806Z,3.08
2022-08-21T17:17:21.126Z,3.00
2022-08-21T17:19:49.286Z,3.45
2022-08-21T17:22:17.344Z,3.03
2022-08-21T17:24:49.309Z,2.97
2022-08-21T17:27:28.223Z,3.17
2022-08-21T17:29:57.044Z,3.17
2022-08-21T17:32:25.496Z,2.88
2022-08-21T17:34:53.602Z,3.08
2022-08-21T17:37:21.893Z,2.67
2022-08-21T17:39:53.588Z,3.05
2022-08-21T17:42:23.122Z,2.63
2022-08-21T17:44:51.184Z,2.72
2022-08-21T17:47:19.412Z,2.78
2022-08-21T17:49:47.781Z,2.92
2022-08-21T17:52:16.042Z,2.70
2022-08-21T17:54:44.591Z,2.80
2022-08-21T17:57:22.685Z,3.00
2022-08-21T17:59:56.345Z,2.88
2022-08-21T18:02:26.633Z,3.08
2022-08-21T18:04:56.753Z,2.63
2022-08-21T18:07:25.307Z,3.25
2022-08-21T18:10:01.063Z,3.20
2022-08-21T18:12:31.780Z,3.28
2022-08-21T18:15:01.069Z,2.97
2022-08-21T18:17:32.615Z,3.22
2022-08-21T18:20:01.976Z,2.88
2022-08-21T18:22:30.367Z,2.80
2022-08-21T18:24:58.354Z,2.75
2022-08-21T18:27:29.602Z,3.65
2022-08-21T18:30:04.597Z,3.38
2022-08-21T18:32:32.868Z,2.97
2022-08-21T18:35:02.741Z,3.22
2022-08-21T18:37:31.170Z,2.75
2022-08-21T18:40:03.655Z,2.83
2022-08-21T18:42:54.884Z,2.97
2022-08-21T18:45:37.692Z,3.28
2022-08-21T18:48:14.111Z,2.97
2022-08-21T18:50:48.082Z,3.80
2022-08-21T18:53:27.395Z,3.25
2022-08-21T18:56:04.877Z,3.40
2022-08-21T18:58:36.610Z,2.88
2022-08-21T19:01:14.826Z,3.47
2022-08-21T19:04:03.445Z,3.17
2022-08-21T19:06:36.586Z,3.10
2022-08-21T19:09:13.246Z,3.10
2022-08-21T19:11:44.617Z,3.55
2022-08-21T19:14:18.164Z,3.20
2022-08-21T19:16:50.203Z,3.10
2022-08-21T19:19:19.217Z,2.80
2022-08-21T19:21:49.326Z,3.22
2022-08-21T19:24:23.313Z,3.05
2022-08-21T19:26:55.706Z,3.63
2022-08-21T19:29:34.680Z,3.40
2022-08-21T19:32:12.923Z,2.97
2022-08-21T19:34:41.933Z,3.25
2022-08-21T19:37:15.018Z,2.95
2022-08-21T19:39:49.989Z,3.45
2022-08-21T19:42:21.632Z,3.58
2022-08-21T19:44:53.045Z,3.80
2022-08-21T19:47:29.389Z,3.30
2022-08-21T19:50:03.355Z,3.58
2022-08-21T19:52:32.636Z,3.40
2022-08-21T19:55:04.126Z,3.42
2022-08-21T19:57:36.600Z,3.90
2022-08-21T20:00:07.271Z,3.65
2022-08-21T20:02:39.756Z,3.75
2022-08-21T20:05:18.167Z,3.78
2022-08-21T20:07:47.121Z,3.00
2022-08-21T20:10:15.444Z,3.95
2022-08-21T20:12:48.224Z,4.88
2022-08-21T20:15:21.926Z,4.60
2022-08-21T20:17:53.521Z,4.30
2022-08-21T20:20:21.690Z,5.93
2022-08-21T20:22:49.886Z,5.57
2022-08-21T20:25:18.019Z,6.10
2022-08-21T20:27:51.619Z,8.90
2022-08-21T20:30:22.891Z,8.45
2022-08-21T20:32:52.767Z,7.80
2022-08-21T20:35:21.265Z,8.57
2022-08-21T20:37:58.956Z,7.40
2022-08-21T20:43:26.516Z,7.15
2022-08-21T20:46:00.935Z,7.07
2022-08-21T20:48:49.373Z,7.75
2022-08-21T20:51:24.455Z,7.05
2022-08-21T20:53:58.664Z,7.13
2022-08-21T20:56:37.168Z,8.77
2022-08-21T20:59:15.223Z,10.80
2022-08-21T21:01:44.841Z,12.90
2022-08-21T21:04:25.328Z,14.77
2022-08-21T21:06:58.978Z,10.88
2022-08-21T21:09:35.204Z,13.80
2022-08-21T21:12:14.603Z,12.82
2022-08-21T21:14:46.865Z,11.52
2022-08-21T21:17:19.083Z,12.18
2022-08-21T21:20:02.982Z,13.98
2022-08-21T21:22:36.961Z,15.10
2022-08-21T21:25:15.152Z,16.48
2022-08-21T21:27:52.760Z,17.83
2022-08-21T21:30:24.448Z,19.23
2022-08-21T21:33:04.743Z,18.27
2022-08-21T21:35:40.572Z,18.50
2022-08-21T21:38:20.387Z,20.90
2022-08-21T21:41:00.898Z,22.05
2022-08-21T21:43:44.993Z,23.58
2022-08-21T21:46:37.971Z,19.55
2022-08-21T21:52:44.986Z,18.10
2022-08-21T21:55:29.025Z,17.95
2022-08-21T21:58:16.650Z,19.05
2022-08-21T22:03:47.482Z,20.17
2022-08-21T22:06:23.179Z,20.30
2022-08-21T22:09:02.992Z,21.90
2022-08-21T22:11:43.550Z,20.83
2022-08-21T22:14:14.676Z,20.17
2022-08-21T22:16:45.376Z,21.58
2022-08-21T22:19:19.292Z,20.52
2022-08-21T22:21:53.521Z,19.52
2022-08-21T22:24:28.159Z,18.73
2022-08-21T22:27:04.001Z,19.38
2022-08-21T22:29:48.324Z,19.27
2022-08-21T22:32:27.213Z,18.75
2022-08-21T22:35:09.398Z,19.98
2022-08-21T22:37:39.556Z,18.55
2022-08-21T22:40:12.878Z,21.67
2022-08-21T22:42:44.112Z,22.55
2022-08-21T22:45:12.557Z,23.88
2022-08-21T22:50:35.366Z,22.15
2022-08-21T22:53:06.766Z,20.85
2022-08-21T22:55:40.664Z,20.00
2022-08-21T22:58:14.700Z,19.10
2022-08-21T23:00:52.043Z,19.60
2022-08-21T23:03:33.857Z,21.50
2022-08-21T23:06:24.472Z,20.55
2022-08-21T23:09:03.363Z,17.25
2022-08-21T23:11:42.716Z,16.65
2022-08-21T23:14:14.369Z,13.90
2022-08-21T23:16:54.106Z,14.13
2022-08-21T23:19:38.109Z,15.05
2022-08-21T23:22:19.991Z,15.18
2022-08-21T23:25:01.266Z,15.77
2022-08-21T23:27:45.584Z,15.15
2022-08-21T23:30:19.101Z,16.38
2022-08-21T23:33:18.496Z,15.73
2022-08-21T23:36:10.606Z,18.17
2022-08-21T23:39:00.400Z,17.35
2022-08-21T23:41:35.506Z,15.07
2022-08-21T23:44:22.116Z,16.20
2022-08-21T23:47:03.777Z,15.88
2022-08-21T23:49:47.016Z,17.45
2022-08-21T23:52:24.950Z,15.93
2022-08-21T23:55:15.552Z,16.40
2022-08-21T23:58:07.420Z,14.82
